Time;durP1;ratioP1;P1;durP2;ratioP2;P2;SDS_P1;SDS_P2;PMS_P1;PMS_P2;Temp;Humidity;BMP_temperature;BMP_pressure;BME280_temperature;BME280_humidity;BME280_pressure;Samples;Min_cycle;Max_cycle;Signal;HPM_P1;HPM_P2
2022/11/11 00:01:51;;;;;;;10.13;6.10;;;;;;;8.05;100.00;102582.06;10536307;28;20483;-70
2022/11/11 00:06:53;;;;;;;11.10;6.75;;;;;;;8.12;100.00;102593.31;10536026;28;20044;-69
2022/11/11 00:11:54;;;;;;;12.57;7.63;;;;;;;8.21;100.00;102595.00;10535952;28;20135;-67
2022/11/11 00:27:41;;;;;;;13.35;6.82;;;;;;;8.28;100.00;102606.25;10543989;28;20527;-75
2022/11/11 00:32:44;;;;;;;12.85;9.00;;;;;;;8.30;100.00;102597.56;10543211;28;20048;-75
2022/11/11 00:37:48;;;;;;;12.57;8.63;;;;;;;8.32;100.00;102600.16;10543067;28;20074;-74
2022/11/11 00:42:49;;;;;;;13.35;8.77;;;;;;;8.31;100.00;102598.44;10543054;28;20135;-70
2022/11/11 00:53:15;;;;;;;13.98;9.75;;;;;;;8.33;100.00;102615.75;10542876;28;20048;-73
2022/11/11 00:58:17;;;;;;;18.00;10.13;;;;;;;8.35;100.00;102613.16;10542670;28;20462;-72
2022/11/11 01:03:22;;;;;;;14.05;9.82;;;;;;;8.37;100.00;102617.47;10543114;28;20050;-71
2022/11/11 01:08:25;;;;;;;13.75;10.02;;;;;;;8.37;100.00;102627.88;10541940;28;20102;-73
2022/11/11 01:13:30;;;;;;;13.93;10.20;;;;;;;8.39;100.00;102630.47;10540167;28;20097;-70
2022/11/11 01:18:34;;;;;;;16.63;10.32;;;;;;;8.40;100.00;102640.00;10541408;28;20472;-70
2022/11/11 01:23:39;;;;;;;17.00;10.23;;;;;;;8.42;100.00;102635.66;10541469;28;20190;-72
2022/11/11 01:28:41;;;;;;;14.40;8.93;;;;;;;8.43;100.00;102628.72;10540157;28;20056;-74
2022/11/11 01:33:45;;;;;;;14.60;9.40;;;;;;;8.46;100.00;102632.16;10541674;28;20048;-73
2022/11/11 01:38:50;;;;;;;14.45;9.38;;;;;;;8.46;100.00;102626.94;10540943;28;20327;-70
2022/11/11 01:43:52;;;;;;;15.05;10.30;;;;;;;8.48;100.00;102630.44;10538001;28;20561;-73
2022/11/11 01:49:20;;;;;;;21.42;10.93;;;;;;;8.48;100.00;102619.16;10540659;28;20074;-72
2022/11/11 01:54:31;;;;;;;15.93;10.20;;;;;;;8.48;100.00;102606.13;10540372;28;20117;-74
2022/11/11 01:59:38;;;;;;;16.83;11.23;;;;;;;8.45;100.00;102599.22;10540073;28;20492;-73
2022/11/11 02:10:08;;;;;;;22.17;11.55;;;;;;;8.45;100.00;102617.44;10539593;28;20118;-76
2022/11/11 02:15:11;;;;;;;16.13;10.32;;;;;;;8.44;100.00;102617.44;10537127;28;20040;-75
2022/11/11 02:20:19;;;;;;;17.50;10.20;;;;;;;8.45;100.00;102604.41;10539659;28;20043;-71
2022/11/11 02:25:29;;;;;;;15.35;10.13;;;;;;;8.41;100.00;102605.31;10538673;28;20509;-69
2022/11/11 02:30:31;;;;;;;18.13;10.57;;;;;;;8.39;100.00;102588.84;10539005;28;20109;-70
2022/11/11 02:35:36;;;;;;;15.32;9.80;;;;;;;8.36;100.00;102581.06;10538587;28;20055;-69
2022/11/11 02:41:55;;;;;;;16.33;8.80;;;;;;;8.34;100.00;102590.59;10538340;28;20457;-71
2022/11/11 02:46:07;;;;;;;18.73;9.57;;;;;;;8.31;100.00;102586.28;10535345;28;20165;-70
2022/11/11 02:51:10;;;;;;;14.73;10.07;;;;;;;8.27;100.00;102599.28;10537895;28;20392;-71
2022/11/11 02:57:05;;;;;;;14.70;9.57;;;;;;;8.24;100.00;102580.25;10538070;28;20115;-68
2022/11/11 03:01:36;;;;;;;14.75;8.98;;;;;;;8.21;100.00;102580.25;10537292;28;20055;-69
2022/11/11 03:06:37;;;;;;;14.35;9.70;;;;;;;8.18;100.00;102567.25;10537561;28;20051;-65
2022/11/11 03:11:42;;;;;;;13.43;8.77;;;;;;;8.18;100.00;102569.84;10537063;28;20115;-74
2022/11/11 03:22:03;;;;;;;16.15;9.13;;;;;;;8.12;100.00;102568.16;10536687;28;20081;-67
2022/11/11 03:27:06;;;;;;;15.75;9.27;;;;;;;8.06;100.00;102573.38;10536721;28;20565;-69
2022/11/11 03:32:09;;;;;;;14.60;9.20;;;;;;;8.08;100.00;102586.38;10536485;28;20165;-69
2022/11/11 03:42:32;;;;;;;11.88;8.60;;;;;;;8.04;100.00;102582.06;10536018;28;20392;-69
2022/11/11 03:47:34;;;;;;;19.35;9.43;;;;;;;7.99;100.00;102585.56;10533365;28;20514;-68
2022/11/11 03:52:42;;;;;;;16.05;9.23;;;;;;;7.96;100.00;102585.56;10535686;28;20044;-69
2022/11/11 03:57:47;;;;;;;13.50;8.73;;;;;;;7.91;100.00;102581.25;10535896;28;20181;-67
2022/11/11 04:29:35;;;;;;;15.70;9.67;;;;;;;7.70;100.00;102593.44;10535196;28;20048;-68
2022/11/11 04:34:36;;;;;;;16.80;10.10;;;;;;;7.66;100.00;102597.75;10535870;28;20054;-70
2022/11/11 04:50:18;;;;;;;14.65;8.55;;;;;;;7.57;100.00;102595.19;10534949;28;20389;-72
2022/11/11 05:00:41;;;;;;;12.63;8.82;;;;;;;7.53;100.00;102591.72;10534625;28;20044;-74
2022/11/11 05:11:05;;;;;;;;;;;;;;;7.43;100.00;102590.84;10543527;28;20040;-74
2022/11/11 05:21:31;;;;;;;14.93;9.32;;;;;;;7.19;100.00;102587.41;10541465;28;20054;-70
2022/11/11 05:26:33;;;;;;;12.35;8.48;;;;;;;7.04;100.00;102603.84;10541681;28;20078;-72
2022/11/11 05:31:36;;;;;;;13.90;9.85;;;;;;;6.90;100.00;102600.38;10541163;28;20507;-71
2022/11/11 05:36:38;;;;;;;12.45;8.95;;;;;;;6.79;100.00;102603.84;10540909;28;20048;-72
2022/11/11 05:41:41;;;;;;;19.35;10.50;;;;;;;6.70;100.00;102599.50;10540626;28;20105;-76
2022/11/11 05:46:44;;;;;;;14.85;10.18;;;;;;;6.59;100.00;102596.00;10538037;28;20461;-71
2022/11/11 05:51:47;;;;;;;20.08;10.85;;;;;;;6.53;100.00;102596.84;10540157;28;20501;-71
2022/11/11 05:56:49;;;;;;;14.32;9.90;;;;;;;6.44;100.00;102586.47;10538965;28;20484;-74
2022/11/11 06:01:54;;;;;;;13.60;8.50;;;;;;;6.41;100.00;102595.09;10538547;28;20044;-72
2022/11/11 06:06:56;;;;;;;13.65;9.98;;;;;;;6.31;100.00;102606.28;10538255;28;20083;-73
2022/11/11 06:11:57;;;;;;;12.60;8.35;;;;;;;6.26;100.00;102602.81;10538680;28;20055;-72
2022/11/11 06:17:00;;;;;;;14.48;9.02;;;;;;;6.17;100.00;102609.66;10535408;28;20044;-72
2022/11/11 06:22:03;;;;;;;17.55;9.38;;;;;;;6.16;100.00;102613.13;10537410;28;20063;-72
2022/11/11 06:27:04;;;;;;;15.52;9.20;;;;;;;6.13;100.00;102628.66;10537823;28;20078;-72
2022/11/11 06:32:08;;;;;;;16.73;10.50;;;;;;;6.06;100.00;102626.94;10537356;28;20060;-73
2022/11/11 06:37:10;;;;;;;18.25;10.50;;;;;;;6.03;100.00;102637.25;10537888;28;20051;-73
2022/11/11 06:42:11;;;;;;;15.60;10.33;;;;;;;6.03;100.00;102647.59;10537087;28;20044;-72
2022/11/11 06:47:15;;;;;;;15.00;9.47;;;;;;;6.04;100.00;102641.59;10534411;28;20306;-74
2022/11/11 06:52:17;;;;;;;17.35;10.43;;;;;;;5.98;100.00;102651.88;10537062;28;20048;-72
2022/11/11 06:57:19;;;;;;;16.00;10.13;;;;;;;5.95;100.00;102659.66;10537326;28;20135;-74
2022/11/11 07:02:22;;;;;;;15.73;10.83;;;;;;;5.93;100.00;102647.53;10536385;28;20508;-71
2022/11/11 07:07:23;;;;;;;19.15;12.20;;;;;;;5.98;100.00;102649.28;10536536;28;20340;-70
2022/11/11 07:12:25;;;;;;;18.23;11.63;;;;;;;6.02;100.00;102643.28;10537389;28;20064;-72
2022/11/11 07:17:28;;;;;;;19.38;11.95;;;;;;;6.04;100.00;102649.38;10535453;28;20048;-70
2022/11/11 07:22:30;;;;;;;17.73;10.23;;;;;;;6.12;100.00;102658.06;10537221;28;20343;-74
2022/11/11 07:27:32;;;;;;;23.25;12.40;;;;;;;6.16;100.00;102675.34;10535888;28;20078;-76
2022/11/11 07:32:36;;;;;;;19.90;11.63;;;;;;;6.23;100.00;102675.41;10536260;28;20060;-70
2022/11/11 07:37:37;;;;;;;24.15;10.90;;;;;;;6.29;100.00;102675.41;10536489;28;20063;-73
2022/11/11 07:42:42;;;;;;;16.40;10.53;;;;;;;6.36;100.00;102677.19;10537359;28;20056;-74
2022/11/11 07:47:45;;;;;;;17.25;11.07;;;;;;;6.35;100.00;102675.47;10534268;28;20101;-73
2022/11/11 07:52:50;;;;;;;24.98;13.05;;;;;;;6.40;100.00;102694.50;10535972;28;20307;-70
2022/11/11 07:57:52;;;;;;;20.20;12.18;;;;;;;6.39;100.00;102695.34;10535915;28;20445;-72
2022/11/11 08:02:55;;;;;;;21.27;13.35;;;;;;;6.45;100.00;102707.50;10534107;28;20052;-75
2022/11/11 08:08:03;;;;;;;17.85;11.95;;;;;;;6.47;100.00;102710.97;10526797;28;20484;-73
2022/11/11 08:18:25;;;;;;;21.48;11.57;;;;;;;6.76;100.00;102719.72;10523757;28;20127;-74
2022/11/11 08:23:32;;;;;;;16.60;11.15;;;;;;;6.93;100.00;102725.84;10527333;28;20044;-71
2022/11/11 08:28:35;;;;;;;18.75;11.77;;;;;;;7.09;100.00;102733.69;10535238;28;20488;-70
2022/11/11 08:33:38;;;;;;;14.65;9.60;;;;;;;7.29;100.00;102732.88;10535516;28;20415;-74
2022/11/11 08:38:39;;;;;;;16.77;10.18;;;;;;;7.26;100.00;102738.94;10538392;28;20047;-72
2022/11/11 08:43:41;;;;;;;13.95;9.70;;;;;;;7.51;100.00;102745.88;10541941;28;20303;-72
2022/11/11 08:48:46;;;;;;;10.82;8.27;;;;;;;7.77;100.00;102756.28;10543179;28;20106;-74
2022/11/11 08:53:48;;;;;;;11.35;8.00;;;;;;;7.90;100.00;102751.94;10542658;28;20403;-74
2022/11/11 08:58:49;;;;;;;10.45;7.68;;;;;;;8.31;100.00;102757.13;10543607;28;20112;-75
2022/11/11 09:03:52;;;;;;;10.77;7.72;;;;;;;8.69;100.00;102756.16;10542381;28;20506;-73
2022/11/11 09:08:54;;;;;;;9.57;5.75;;;;;;;8.14;100.00;102755.38;10507702;28;20079;-71
2022/11/11 09:13:56;;;;;;;11.25;7.22;;;;;;;8.61;100.00;102755.31;10498265;28;20048;-74
2022/11/11 09:18:59;;;;;;;10.23;6.60;;;;;;;8.82;100.00;102758.69;10510442;28;20069;-72
2022/11/11 09:24:01;;;;;;;11.68;6.43;;;;;;;8.81;100.00;102751.78;10542165;28;20139;-74
2022/11/11 09:29:03;;;;;;;7.45;6.00;;;;;;;8.93;100.00;102767.34;10541026;28;20048;-73
2022/11/11 09:34:06;;;;;;;5.82;5.00;;;;;;;9.62;100.00;102766.94;10541118;28;20454;-73
2022/11/11 09:39:09;;;;;;;7.60;5.32;;;;;;;9.52;100.00;102767.00;10541285;28;20488;-75
2022/11/11 09:44:33;;;;;;;7.05;5.00;;;;;;;9.75;100.00;102758.13;10534476;28;20048;-76
2022/11/11 09:49:58;;;;;;;8.45;5.10;;;;;;;9.75;100.00;102771.19;10540079;28;20548;-77
2022/11/11 09:55:13;;;;;;;7.97;5.20;;;;;;;10.00;100.00;102778.81;10541079;28;20074;-75
2022/11/11 10:00:21;;;;;;;7.38;4.68;;;;;;;9.99;100.00;102766.63;10541028;28;20094;-76
2022/11/11 10:05:32;;;;;;;7.30;4.78;;;;;;;10.46;100.00;102771.41;10540371;28;20411;-76
2022/11/11 10:10:44;;;;;;;6.68;4.75;;;;;;;10.85;99.43;102772.72;10540881;28;20048;-80
2022/11/11 10:16:02;;;;;;;7.57;4.77;;;;;;;10.56;100.00;102783.50;10537411;28;20422;-74
2022/11/11 10:21:15;;;;;;;8.80;4.28;;;;;;;10.79;99.98;102771.91;10539410;28;20102;-78
2022/11/11 10:26:24;;;;;;;6.03;3.53;;;;;;;10.63;96.53;102776.44;10539282;28;20108;-76
2022/11/11 10:31:27;;;;;;;5.10;3.97;;;;;;;10.61;99.31;102779.97;10539431;28;20113;-77
2022/11/11 10:36:31;;;;;;;4.68;3.60;;;;;;;10.55;99.92;102779.13;10539334;28;20117;-74
2022/11/11 10:41:41;;;;;;;6.15;3.65;;;;;;;11.65;95.28;102780.28;10538586;28;20400;-78
2022/11/11 10:46:59;;;;;;;3.50;3.20;;;;;;;11.38;93.89;102778.09;10536301;28;20052;-75
2022/11/11 10:52:10;;;;;;;3.75;3.08;;;;;;;11.64;93.23;102783.81;10538646;28;20484;-75
2022/11/11 10:57:22;;;;;;;4.77;3.37;;;;;;;11.31;92.70;102785.16;10538184;28;20051;-72
2022/11/11 11:02:30;;;;;;;;;;;;;;;12.35;88.65;102777.38;10538418;28;20044;-76
2022/11/11 11:07:44;;;;;;;5.82;2.65;;;;;;;12.13;86.97;102781.28;10537275;28;19996;-74
2022/11/11 11:12:53;;;;;;;3.85;2.50;;;;;;;13.16;90.69;102768.72;10537607;28;20048;-76
2022/11/11 11:18:04;;;;;;;2.72;2.20;;;;;;;12.52;91.21;102768.31;10535121;28;20288;-77
2022/11/11 11:23:07;;;;;;;4.83;2.57;;;;;;;12.52;89.52;102768.31;10537777;28;20056;-73
2022/11/11 11:28:12;;;;;;;7.65;2.40;;;;;;;12.34;86.59;102765.19;10536702;28;20130;-75
2022/11/11 11:33:14;;;;;;;3.88;2.40;;;;;;;12.23;89.70;102762.78;10536707;28;20457;-78
2022/11/11 11:38:18;;;;;;;3.10;2.13;;;;;;;12.28;89.36;102765.28;10524854;28;20043;-75
2022/11/11 11:43:33;;;;;;;3.28;2.50;;;;;;;12.48;86.75;102756.19;10535687;28;20514;-76
2022/11/11 11:48:53;;;;;;;2.70;2.00;;;;;;;13.01;85.33;102752.47;10536353;28;20483;-72
2022/11/11 11:54:25;;;;;;;2.65;2.10;;;;;;;12.78;84.14;102752.97;10536199;28;20484;-76
2022/11/11 11:59:36;;;;;;;;;;;;;;;13.33;84.17;102747.38;10536769;28;20067;-77
2022/11/11 12:05:02;;;;;;;3.10;1.90;;;;;;;12.74;83.02;102747.78;10535587;28;19989;-73
2022/11/11 12:10:23;;;;;;;1.85;1.75;;;;;;;13.14;82.78;102734.72;10533391;28;20044;-74
2022/11/11 12:15:34;;;;;;;3.33;1.70;;;;;;;12.80;84.73;102746.78;10540135;28;20089;-77
2022/11/11 12:20:45;;;;;;;2.35;1.70;;;;;;;13.33;83.46;102727.28;10544565;28;20070;-76
2022/11/11 12:26:03;;;;;;;2.10;1.90;;;;;;;12.92;84.18;102723.84;10535619;28;20101;-72
2022/11/11 12:31:26;;;;;;;2.13;1.80;;;;;;;13.25;82.93;102721.34;10541870;28;20087;-76
2022/11/11 12:36:37;;;;;;;3.13;2.00;;;;;;;13.04;83.62;102723.59;10542230;28;20039;-72
2022/11/11 12:42:03;;;;;;;2.13;1.83;;;;;;;13.20;82.77;102717.97;10539434;28;20127;-76
2022/11/11 12:47:27;;;;;;;2.10;1.73;;;;;;;12.83;83.53;102715.28;10539610;28;20074;-81
2022/11/11 12:52:47;;;;;;;3.10;1.95;;;;;;;12.92;82.61;102713.34;10541500;28;20040;-74
2022/11/11 12:58:14;;;;;;;5.50;2.10;;;;;;;13.68;82.19;102716.00;10541179;28;20052;-75
2022/11/11 13:03:43;;;;;;;3.95;2.20;;;;;;;13.34;81.85;102709.78;10541942;28;20075;-75
2022/11/11 13:09:10;;;;;;;4.55;2.20;;;;;;;13.48;83.42;102701.59;10542287;28;20091;-78
2022/11/11 13:14:39;;;;;;;2.15;1.98;;;;;;;13.51;83.29;102704.13;10540102;28;20094;-75
2022/11/11 13:19:46;;;;;;;3.25;2.58;;;;;;;13.41;83.58;102697.38;10541925;28;20056;-73
2022/11/11 13:24:48;;;;;;;2.67;2.10;;;;;;;13.02;83.69;102696.53;10540787;28;20093;-74
2022/11/11 13:30:41;;;;;;;4.25;2.30;;;;;;;13.13;84.86;102691.91;10541514;28;20443;-73
2022/11/11 13:35:48;;;;;;;4.25;2.30;;;;;;;12.95;84.56;102697.56;10543420;28;20082;-74
2022/11/11 13:40:54;;;;;;;4.65;2.30;;;;;;;12.99;85.35;102701.84;10542939;28;20044;-73
2022/11/11 13:46:02;;;;;;;2.40;2.20;;;;;;;12.87;85.38;102703.00;10540969;28;20055;-77
2022/11/11 13:51:23;;;;;;;4.40;2.30;;;;;;;12.85;86.19;102697.78;10542943;28;20118;-76
2022/11/11 13:56:32;;;;;;;5.07;2.03;;;;;;;12.78;86.78;102696.19;10542556;28;20489;-72
2022/11/11 14:01:39;;;;;;;3.25;2.20;;;;;;;12.73;87.70;102698.91;10542310;28;20371;-75
2022/11/11 14:06:54;;;;;;;2.08;1.65;;;;;;;12.68;86.64;102694.66;10541726;28;20048;-78
2022/11/11 14:12:21;;;;;;;2.50;1.80;;;;;;;12.61;87.23;102697.44;10540556;28;20093;-74
2022/11/11 14:17:30;;;;;;;4.60;2.40;;;;;;;12.53;87.22;102699.34;10537488;28;20052;-75
2022/11/11 14:22:33;;;;;;;4.75;1.90;;;;;;;12.50;87.82;102699.41;10539768;28;20458;-80
2022/11/11 14:27:35;;;;;;;3.45;2.10;;;;;;;12.52;88.09;102700.22;10539270;28;20549;-77
2022/11/11 14:32:58;;;;;;;3.60;2.00;;;;;;;12.34;87.53;102702.34;10539226;28;20060;-79
2022/11/11 14:38:30;;;;;;;3.67;1.90;;;;;;;12.27;88.04;102697.25;10538942;28;20093;-74
2022/11/11 14:43:37;;;;;;;;;;;;;;;12.19;88.94;102700.91;10537195;28;20048;-75
2022/11/11 14:49:04;;;;;;;4.07;2.17;;;;;;;12.13;89.56;102702.75;10538697;28;19927;-74
2022/11/11 14:54:20;;;;;;;4.47;2.20;;;;;;;12.04;89.31;102699.41;10535529;28;20165;-76
2022/11/11 14:59:27;;;;;;;2.20;2.00;;;;;;;11.97;90.00;102693.41;10538462;28;20051;-77
2022/11/11 15:04:38;;;;;;;2.13;1.95;;;;;;;11.80;91.18;102701.56;10538553;28;20063;-77
2022/11/11 15:10:07;;;;;;;3.80;2.27;;;;;;;11.64;92.20;102703.59;10538250;28;20135;-76
2022/11/11 15:15:23;;;;;;;7.35;2.45;;;;;;;11.46;93.45;102694.28;10535454;28;20051;-74
2022/11/11 15:20:52;;;;;;;3.92;2.33;;;;;;;11.32;94.41;102695.41;10537285;28;20101;-75
2022/11/11 15:26:06;;;;;;;3.83;2.60;;;;;;;11.23;95.38;102706.00;10537576;28;20055;-73
2022/11/11 15:31:24;;;;;;;8.35;2.40;;;;;;;11.03;94.45;102699.34;10536499;28;20056;-74
2022/11/11 15:36:50;;;;;;;3.75;2.35;;;;;;;10.53;100.00;102707.81;10538283;28;20105;-74
2022/11/11 15:41:53;;;;;;;4.40;2.45;;;;;;;10.02;100.00;102698.78;10535361;28;20052;-74
2022/11/11 15:46:58;;;;;;;4.45;2.63;;;;;;;9.60;100.00;102700.91;10498083;28;20099;-74
2022/11/11 15:52:01;;;;;;;4.18;2.25;;;;;;;9.25;100.00;102703.78;10495607;28;20044;-73
2022/11/11 15:57:22;;;;;;;5.68;2.63;;;;;;;8.97;100.00;102711.75;10495768;28;20064;-73
2022/11/11 16:02:27;;;;;;;4.07;2.47;;;;;;;8.72;100.00;102706.69;10496121;28;20054;-72
2022/11/11 16:07:38;;;;;;;3.85;2.55;;;;;;;8.50;100.00;102719.78;10508084;28;20109;-72
2022/11/11 16:12:53;;;;;;;7.75;2.75;;;;;;;8.21;100.00;102719.84;10536840;28;20048;-72
2022/11/11 16:18:01;;;;;;;5.28;2.72;;;;;;;7.92;100.00;102724.22;10533722;28;20453;-73
2022/11/11 16:23:09;;;;;;;4.53;2.63;;;;;;;7.70;100.00;102720.78;10537191;28;20061;-72
2022/11/11 16:28:12;;;;;;;3.47;2.78;;;;;;;7.50;100.00;102731.16;10537122;28;20059;-72
2022/11/11 16:33:32;;;;;;;6.40;2.88;;;;;;;7.31;100.00;102725.94;10536579;28;20101;-72
2022/11/11 16:38:37;;;;;;;3.58;3.15;;;;;;;7.15;100.00;102728.50;10535816;28;20055;-73
2022/11/11 16:43:42;;;;;;;6.85;3.30;;;;;;;7.00;100.00;102723.25;10533455;28;20078;-73
2022/11/11 16:48:48;;;;;;;4.75;3.50;;;;;;;6.82;100.00;102730.13;10535738;28;20044;-72
2022/11/11 16:54:10;;;;;;;5.78;4.10;;;;;;;6.72;100.00;102720.56;10535318;28;20139;-72
2022/11/11 16:59:19;;;;;;;8.67;4.83;;;;;;;6.61;100.00;102726.59;10538082;28;20048;-72
2022/11/11 17:04:24;;;;;;;6.82;4.28;;;;;;;6.48;100.00;102728.25;10542928;28;20298;-72
2022/11/11 17:09:39;;;;;;;7.95;4.95;;;;;;;6.39;100.00;102729.06;10542945;28;20056;-72
2022/11/11 17:14:42;;;;;;;13.07;9.75;;;;;;;6.38;100.00;102727.34;10540009;28;20048;-72
2022/11/11 17:19:44;;;;;;;14.55;8.63;;;;;;;6.42;100.00;102729.09;10542316;28;20048;-72
2022/11/11 17:24:48;;;;;;;16.70;8.95;;;;;;;6.36;100.00;102734.25;10542505;28;20040;-72
2022/11/11 17:29:50;;;;;;;16.08;9.20;;;;;;;6.18;100.00;102738.47;10541052;28;20496;-72
2022/11/11 17:34:51;;;;;;;11.63;8.30;;;;;;;6.04;100.00;102737.50;10541192;28;20054;-72
2022/11/11 17:39:54;;;;;;;14.20;9.45;;;;;;;5.97;100.00;102731.38;10541157;28;20093;-72
2022/11/11 17:44:57;;;;;;;12.30;8.55;;;;;;;5.84;100.00;102735.59;10538399;28;20507;-72
2022/11/11 17:49:59;;;;;;;13.80;8.00;;;;;;;5.80;100.00;102733.84;10541216;28;20105;-72
2022/11/11 17:55:05;;;;;;;12.88;8.65;;;;;;;5.73;100.00;102735.50;10540888;28;20476;-73
2022/11/11 18:00:08;;;;;;;16.15;8.43;;;;;;;5.65;100.00;102725.06;10541212;28;20050;-72
2022/11/11 18:05:10;;;;;;;19.25;9.50;;;;;;;5.57;100.00;102731.91;10539810;28;20051;-72
2022/11/11 18:10:14;;;;;;;17.87;9.00;;;;;;;5.48;100.00;102726.66;10539279;28;20044;-72
2022/11/11 18:15:17;;;;;;;14.73;9.50;;;;;;;5.52;100.00;102731.00;10537729;28;20062;-67
2022/11/11 18:20:19;;;;;;;17.60;9.75;;;;;;;5.37;100.00;102730.00;10539664;28;20047;-67
2022/11/11 18:25:24;;;;;;;14.23;9.57;;;;;;;5.37;100.00;102739.50;10539302;28;20048;-68
2022/11/11 18:30:25;;;;;;;15.20;9.63;;;;;;;5.46;100.00;102743.88;10539219;28;20052;-67
2022/11/11 18:35:27;;;;;;;14.37;9.70;;;;;;;5.45;100.00;102734.38;10539284;28;20096;-67
2022/11/11 18:40:30;;;;;;;14.95;8.93;;;;;;;5.35;100.00;102730.84;10539314;28;20048;-67
2022/11/11 18:45:35;;;;;;;13.35;8.43;;;;;;;5.35;100.00;102731.72;10536344;28;20054;-68
2022/11/11 18:50:37;;;;;;;15.70;9.02;;;;;;;5.26;100.00;102741.97;10538807;28;20094;-67
2022/11/11 18:55:40;;;;;;;24.93;9.60;;;;;;;5.07;100.00;102730.56;10538276;28;20117;-67
2022/11/11 19:00:41;;;;;;;14.40;8.98;;;;;;;4.96;100.00;102727.84;10537810;28;20044;-67
2022/11/11 19:05:43;;;;;;;12.20;8.83;;;;;;;5.07;100.00;102726.25;10537692;28;20044;-67
2022/11/11 19:10:49;;;;;;;15.88;8.73;;;;;;;5.02;100.00;102727.91;10537361;28;20422;-67
2022/11/11 19:15:52;;;;;;;16.92;9.60;;;;;;;5.03;100.00;102740.88;10535456;28;20052;-67
2022/11/11 19:20:54;;;;;;;15.48;9.85;;;;;;;4.95;100.00;102741.63;10537124;28;20058;-68
2022/11/11 19:25:59;;;;;;;17.53;10.67;;;;;;;4.80;100.00;102747.47;10536568;28;20486;-67
2022/11/11 19:31:02;;;;;;;20.80;11.02;;;;;;;4.71;100.00;102754.28;10536723;28;20404;-67
2022/11/11 19:36:07;;;;;;;13.80;10.13;;;;;;;4.69;100.00;102755.13;10535298;28;20063;-71
2022/11/11 19:41:14;;;;;;;16.83;10.52;;;;;;;4.76;100.00;102751.75;10535362;28;20063;-72
2022/11/11 19:46:20;;;;;;;18.83;11.73;;;;;;;4.70;100.00;102762.00;10532015;28;20055;-72
2022/11/11 19:51:24;;;;;;;20.08;12.95;;;;;;;4.62;100.00;102757.59;10534667;28;20048;-72
2022/11/11 19:56:31;;;;;;;16.80;12.30;;;;;;;4.51;100.00;102757.47;10534120;28;20062;-72
2022/11/11 20:01:33;;;;;;;21.50;13.18;;;;;;;4.56;100.00;102769.59;10534151;28;20059;-72
2022/11/11 20:06:35;;;;;;;26.65;15.18;;;;;;;4.57;100.00;102771.31;10533853;28;20443;-71
2022/11/11 20:11:43;;;;;;;20.42;14.50;;;;;;;4.32;100.00;102765.81;10534793;28;20051;-71
2022/11/11 20:16:45;;;;;;;25.30;16.60;;;;;;;4.25;100.00;102780.38;10535080;28;20056;-73
2022/11/11 20:21:47;;;;;;;26.63;16.08;;;;;;;4.25;100.00;102781.22;10537096;28;20116;-72
2022/11/11 20:26:51;;;;;;;23.87;15.43;;;;;;;4.22;100.00;102782.91;10537005;28;20448;-71
2022/11/11 20:31:53;;;;;;;26.40;15.35;;;;;;;4.27;100.00;102783.81;10536739;28;20118;-72
2022/11/11 20:36:55;;;;;;;28.25;15.90;;;;;;;4.20;100.00;102792.31;10544052;28;20101;-71
2022/11/11 20:41:58;;;;;;;25.48;14.88;;;;;;;4.11;100.00;102800.81;10545408;28;20491;-71
2022/11/11 20:47:01;;;;;;;27.67;15.45;;;;;;;4.14;100.00;102798.25;10542607;28;20486;-72
2022/11/11 20:52:02;;;;;;;27.83;15.13;;;;;;;3.97;100.00;102788.53;10545016;28;20145;-71
2022/11/11 20:57:06;;;;;;;25.00;16.15;;;;;;;3.88;100.00;102803.00;10545289;28;20051;-72
2022/11/11 21:02:09;;;;;;;22.77;14.27;;;;;;;3.84;100.00;102805.53;10544175;28;20472;-73
2022/11/11 21:07:12;;;;;;;23.83;16.00;;;;;;;3.91;100.00;102805.66;10544197;28;20455;-72
2022/11/11 21:12:15;;;;;;;23.38;15.18;;;;;;;3.90;100.00;102807.34;10543942;28;20338;-71
2022/11/11 21:17:18;;;;;;;22.25;15.05;;;;;;;3.95;100.00;102797.97;10541758;28;20430;-73
2022/11/11 21:22:19;;;;;;;23.63;16.08;;;;;;;3.85;100.00;102794.38;10543512;28;20062;-72
2022/11/11 21:27:23;;;;;;;26.77;16.43;;;;;;;3.89;100.00;102802.16;10543526;28;20108;-71
2022/11/11 21:32:25;;;;;;;24.27;15.63;;;;;;;3.84;100.00;102799.50;10542813;28;20136;-72
2022/11/11 21:37:27;;;;;;;23.87;15.43;;;;;;;3.76;100.00;102801.94;10543083;28;20062;-72
2022/11/11 21:42:30;;;;;;;25.80;15.90;;;;;;;3.76;100.00;102812.28;10543429;28;20059;-71
2022/11/11 21:47:33;;;;;;;23.05;15.30;;;;;;;3.66;100.00;102820.72;10539230;28;20497;-72
2022/11/11 21:52:35;;;;;;;26.17;16.00;;;;;;;3.72;100.00;102831.13;10542442;28;20592;-71
2022/11/11 21:57:39;;;;;;;28.97;17.60;;;;;;;3.76;100.00;102827.78;10542004;28;20119;-71
2022/11/11 22:02:40;;;;;;;26.08;16.38;;;;;;;3.71;100.00;102839.75;10542011;28;20058;-71
2022/11/11 22:07:42;;;;;;;30.07;18.73;;;;;;;3.59;100.00;102835.19;10541830;28;20063;-71
2022/11/11 22:12:45;;;;;;;29.43;17.83;;;;;;;3.52;100.00;102843.69;10541410;28;20082;-71
2022/11/11 22:17:47;;;;;;;28.30;17.88;;;;;;;3.48;100.00;102837.59;10539381;28;20062;-68
2022/11/11 22:22:48;;;;;;;30.13;18.20;;;;;;;3.46;100.00;102842.72;10541407;28;20056;-68
2022/11/11 22:27:53;;;;;;;26.30;17.30;;;;;;;3.47;100.00;102843.59;10540750;28;20207;-70
2022/11/11 22:32:55;;;;;;;28.42;18.70;;;;;;;3.42;100.00;102843.50;10540359;28;20048;-68
2022/11/11 22:37:58;;;;;;;32.60;19.47;;;;;;;3.33;100.00;102849.38;10540646;28;20061;-69
2022/11/11 22:43:01;;;;;;;31.80;19.92;;;;;;;3.25;100.00;102850.88;10540807;28;20310;-69
2022/11/11 22:48:03;;;;;;;27.13;18.77;;;;;;;3.32;100.00;102857.91;10538145;28;20056;-68
2022/11/11 22:53:05;;;;;;;35.30;20.85;;;;;;;3.18;100.00;102854.22;10539910;28;20079;-70
2022/11/11 22:58:08;;;;;;;30.67;19.67;;;;;;;3.02;100.00;102848.72;10539227;28;20127;-68
2022/11/11 23:03:10;;;;;;;37.67;21.67;;;;;;;2.90;100.00;102858.75;10539386;28;20062;-69
2022/11/11 23:08:13;;;;;;;31.90;20.17;;;;;;;2.94;100.00;102847.66;10540010;28;20113;-69
2022/11/11 23:13:16;;;;;;;32.40;20.23;;;;;;;3.05;100.00;102848.75;10539517;28;20138;-68
2022/11/11 23:18:19;;;;;;;31.90;20.88;;;;;;;3.07;100.00;102857.41;10537004;28;20104;-69
2022/11/11 23:23:21;;;;;;;33.95;20.52;;;;;;;2.89;100.00;102851.84;10538503;28;20456;-69
2022/11/11 23:28:24;;;;;;;35.03;20.25;;;;;;;2.70;100.00;102856.59;10538741;28;20060;-68
2022/11/11 23:33:26;;;;;;;34.20;20.77;;;;;;;2.76;100.00;102861.91;10538916;28;20063;-68
2022/11/11 23:38:28;;;;;;;34.33;20.17;;;;;;;2.82;100.00;102851.72;10538767;28;20065;-68
2022/11/11 23:43:31;;;;;;;30.13;20.48;;;;;;;2.75;100.00;102855.00;10538366;28;20117;-70
2022/11/11 23:48:35;;;;;;;37.72;19.58;;;;;;;2.72;100.00;102847.19;10536339;28;20058;-69
2022/11/11 23:53:37;;;;;;;32.50;19.58;;;;;;;2.57;100.00;102842.56;10537829;28;20112;-68
2022/11/11 23:58:41;;;;;;;42.38;24.42;;;;;;;2.49;100.00;102844.09;10537657;28;20116;-70
